Terminal Aerodrome Forecast
Issued by NWS

Home | Current Version | Previous Version | Text Only | Print | Product List | Glossary On
Versions: 1 2 3 4 5 6 7 8 9 10 11 12 13 14 15 16 17 18 19 20 21 22 23 24 25 26 27 28 29 30 31 32 33
000
FTUS44 KMAF 160500
TAFHOB
TAF
KHOB 160529Z 1606/1706 VRB05KT P6SM BKN040
     FM161100 VRB05KT 6SM BR OVC012
      TEMPO 1612/1616 3SM BR OVC006=

USA.gov is the U.S. government's official web portal to all federal, state and local government web resources and services.